createdAt,value
2022-11-03T00:01:47.343Z,2.60
2022-11-03T00:04:17.169Z,2.83
2022-11-03T00:06:47.809Z,3.13
2022-11-03T00:09:17.490Z,3.43
2022-11-03T00:11:46.387Z,2.90
2022-11-03T00:14:14.968Z,3.03
2022-11-03T00:16:41.985Z,3.17
2022-11-03T00:19:10.532Z,2.80
2022-11-03T00:21:38.201Z,2.90
2022-11-03T00:24:05.709Z,3.00
2022-11-03T00:26:34.612Z,2.80
2022-11-03T00:29:10.740Z,3.20
2022-11-03T00:31:40.372Z,2.77
2022-11-03T00:34:08.218Z,3.17
2022-11-03T00:36:38.506Z,2.67
2022-11-03T00:39:06.458Z,3.10
2022-11-03T00:41:33.863Z,3.10
2022-11-03T00:44:00.840Z,2.40
2022-11-03T00:46:30.239Z,2.43
2022-11-03T00:48:57.126Z,2.50
2022-11-03T00:51:27.710Z,2.73
2022-11-03T00:53:57.542Z,3.40
2022-11-03T00:56:26.554Z,2.93
2022-11-03T00:58:54.798Z,2.90
2022-11-03T01:01:27.948Z,2.90
2022-11-03T01:04:15.710Z,2.73
2022-11-03T01:06:53.653Z,2.90
2022-11-03T01:09:36.442Z,2.83
2022-11-03T01:12:17.199Z,2.60
2022-11-03T01:14:53.994Z,2.67
2022-11-03T01:17:24.284Z,2.67
2022-11-03T01:19:51.891Z,3.00
2022-11-03T01:22:20.408Z,2.80
2022-11-03T01:24:47.606Z,3.53
2022-11-03T01:27:18.516Z,3.50
2022-11-03T01:29:45.397Z,3.30
2022-11-03T01:32:12.402Z,3.23
2022-11-03T01:34:39.897Z,3.80
2022-11-03T01:37:07.345Z,3.13
2022-11-03T01:39:34.484Z,3.07
2022-11-03T01:42:01.520Z,3.10
2022-11-03T01:44:37.534Z,3.50
2022-11-03T01:47:31.761Z,3.30
2022-11-03T01:50:12.038Z,3.20
2022-11-03T01:52:58.895Z,3.13
2022-11-03T01:55:36.356Z,3.50
2022-11-03T01:58:10.862Z,3.77
2022-11-03T02:00:40.470Z,4.13
2022-11-03T02:03:07.745Z,4.20
2022-11-03T02:05:35.439Z,4.20
2022-11-03T02:08:12.536Z,4.20
2022-11-03T02:10:39.428Z,4.10
2022-11-03T02:13:16.709Z,4.87
2022-11-03T02:15:44.606Z,4.00
2022-11-03T02:18:12.625Z,4.10
2022-11-03T02:20:41.674Z,3.97
2022-11-03T02:23:43.692Z,3.70
2022-11-03T02:26:11.921Z,4.20
2022-11-03T02:28:38.842Z,4.33
2022-11-03T02:31:19.729Z,3.60
2022-11-03T02:34:08.126Z,3.67
2022-11-03T02:36:47.655Z,4.23
2022-11-03T02:39:30.113Z,3.97
2022-11-03T02:41:59.738Z,4.20
2022-11-03T02:44:28.358Z,3.70
2022-11-03T02:47:00.975Z,4.20
2022-11-03T02:49:27.978Z,3.87
2022-11-03T02:52:02.644Z,4.27
2022-11-03T02:54:36.290Z,3.60
2022-11-03T02:57:10.087Z,3.40
2022-11-03T02:59:50.662Z,4.27
2022-11-03T03:02:24.522Z,3.43
2022-11-03T03:04:58.109Z,3.80
2022-11-03T03:07:41.607Z,4.00
2022-11-03T03:10:13.076Z,3.87
2022-11-03T03:12:48.739Z,3.50
2022-11-03T03:15:18.924Z,3.53
2022-11-03T03:18:00.230Z,4.10
2022-11-03T03:20:34.609Z,4.00
2022-11-03T03:23:26.825Z,4.53
2022-11-03T03:26:05.244Z,4.00
2022-11-03T03:28:50.199Z,3.50
2022-11-03T03:31:19.398Z,3.60
2022-11-03T03:33:48.898Z,4.27
2022-11-03T03:36:18.441Z,3.33
2022-11-03T03:38:50.978Z,3.90
2022-11-03T03:41:22.045Z,3.40
2022-11-03T03:43:56.103Z,4.10
2022-11-03T03:46:27.092Z,4.43
2022-11-03T03:48:54.064Z,3.67
2022-11-03T03:51:25.484Z,3.70
2022-11-03T03:53:54.451Z,3.80
2022-11-03T03:56:31.844Z,4.67
2022-11-03T03:58:58.862Z,4.27
2022-11-03T04:01:25.928Z,4.00
2022-11-03T04:03:52.894Z,3.60
2022-11-03T04:06:19.767Z,4.00
2022-11-03T04:08:46.650Z,4.10
2022-11-03T04:11:32.071Z,4.40
2022-11-03T04:14:17.580Z,3.60
2022-11-03T04:17:03.056Z,3.97
2022-11-03T04:19:48.430Z,4.83
2022-11-03T04:22:18.173Z,4.40
2022-11-03T04:24:51.642Z,4.53
2022-11-03T04:27:37.110Z,5.40
2022-11-03T04:30:09.922Z,4.60
2022-11-03T04:32:37.608Z,4.77
2022-11-03T04:35:26.684Z,5.10
2022-11-03T04:38:16.921Z,4.43
2022-11-03T04:40:54.609Z,5.90
2022-11-03T04:43:29.962Z,6.53
2022-11-03T04:45:56.854Z,5.67
2022-11-03T04:48:25.030Z,5.63
2022-11-03T04:50:58.622Z,5.20
2022-11-03T04:53:31.342Z,5.73
2022-11-03T04:56:01.532Z,7.63
2022-11-03T04:58:36.202Z,5.03
2022-11-03T05:01:04.315Z,5.10
2022-11-03T05:03:36.228Z,4.57
2022-11-03T05:06:13.968Z,5.33
2022-11-03T05:08:43.118Z,5.23
2022-11-03T05:11:21.855Z,5.10
2022-11-03T05:13:49.258Z,5.03
2022-11-03T05:16:16.757Z,5.07
2022-11-03T05:18:47.030Z,6.63
2022-11-03T05:21:18.437Z,4.73
2022-11-03T05:23:50.953Z,4.90
2022-11-03T05:26:35.730Z,4.90
2022-11-03T05:29:22.386Z,5.13
2022-11-03T05:31:52.432Z,4.77
2022-11-03T05:34:41.527Z,4.80
2022-11-03T05:37:27.503Z,5.37
2022-11-03T05:40:19.580Z,5.83
2022-11-03T05:42:59.238Z,5.00
2022-11-03T05:45:37.526Z,5.37
2022-11-03T05:48:35.694Z,5.43
2022-11-03T05:51:38.112Z,5.13
2022-11-03T05:54:10.083Z,8.00
2022-11-03T05:56:36.967Z,4.90
2022-11-03T05:59:05.106Z,5.97
2022-11-03T06:01:36.583Z,5.90
2022-11-03T06:04:29.561Z,5.53
2022-11-03T06:07:03.072Z,5.70
2022-11-03T06:09:33.756Z,5.60
2022-11-03T06:12:05.582Z,5.27
2022-11-03T06:14:33.204Z,6.20
2022-11-03T06:17:07.301Z,6.43
2022-11-03T06:19:50.772Z,5.67
2022-11-03T06:22:36.450Z,6.07
2022-11-03T06:25:23.003Z,4.97
2022-11-03T06:27:50.647Z,5.87
2022-11-03T06:30:29.469Z,5.03
2022-11-03T06:33:00.763Z,6.30
2022-11-03T06:35:28.033Z,6.30
2022-11-03T06:37:57.831Z,7.50
2022-11-03T06:40:34.970Z,6.40
2022-11-03T06:43:24.788Z,6.27
2022-11-03T06:45:55.863Z,8.63
2022-11-03T06:48:28.913Z,6.50
2022-11-03T06:50:58.224Z,6.90
2022-11-03T06:53:32.071Z,6.07
2022-11-03T06:55:59.858Z,5.70
2022-11-03T06:58:35.018Z,5.53
2022-11-03T07:01:16.876Z,5.83
2022-11-03T07:03:44.340Z,9.27
2022-11-03T07:06:11.101Z,6.80
2022-11-03T07:08:43.542Z,5.30
2022-11-03T07:11:16.446Z,5.10
2022-11-03T07:13:44.426Z,4.37
2022-11-03T07:16:20.143Z,6.07
2022-11-03T07:18:47.730Z,4.37
2022-11-03T07:21:31.463Z,4.43
2022-11-03T07:24:02.611Z,4.23
2022-11-03T07:26:29.506Z,5.30
2022-11-03T07:28:56.471Z,4.83
2022-11-03T07:31:26.080Z,4.03
2022-11-03T07:33:59.578Z,4.80
2022-11-03T07:36:31.652Z,3.70
2022-11-03T07:39:01.486Z,4.30
2022-11-03T07:41:34.290Z,4.63
2022-11-03T07:44:02.540Z,5.30
2022-11-03T07:46:29.526Z,3.30
2022-11-03T07:49:04.501Z,5.27
2022-11-03T07:51:37.779Z,4.17
2022-11-03T07:54:16.106Z,4.27
2022-11-03T07:56:48.375Z,4.53
2022-11-03T07:59:27.836Z,4.57
2022-11-03T08:01:57.319Z,3.93
2022-11-03T08:04:34.349Z,4.17
2022-11-03T08:07:01.248Z,4.13
2022-11-03T08:09:28.124Z,4.53
2022-11-03T08:11:54.995Z,4.20
2022-11-03T08:14:21.892Z,4.63
2022-11-03T08:16:48.803Z,5.03
2022-11-03T08:19:15.667Z,4.03
2022-11-03T08:21:42.546Z,3.87
2022-11-03T08:24:09.442Z,3.63
2022-11-03T08:26:36.353Z,3.97
2022-11-03T08:29:03.377Z,5.63
2022-11-03T08:31:30.330Z,4.57
2022-11-03T08:33:57.256Z,3.77
2022-11-03T08:36:24.419Z,3.80
2022-11-03T08:38:51.281Z,5.10
2022-11-03T08:41:18.158Z,4.00
2022-11-03T08:43:45.017Z,4.13
2022-11-03T08:46:17.536Z,3.80
2022-11-03T08:48:46.149Z,4.50
2022-11-03T08:51:14.910Z,3.87
2022-11-03T08:53:42.992Z,3.23
2022-11-03T08:56:12.829Z,3.30
2022-11-03T08:58:41.362Z,3.60
2022-11-03T09:01:08.280Z,3.47
2022-11-03T09:03:35.398Z,3.37
2022-11-03T09:06:02.385Z,3.63
2022-11-03T09:11:16.144Z,4.10
2022-11-03T09:13:43.004Z,3.50
2022-11-03T09:16:09.874Z,4.40
2022-11-03T09:18:37.347Z,4.20
2022-11-03T09:21:04.309Z,3.27
2022-11-03T09:23:31.188Z,2.93
2022-11-03T09:25:58.086Z,3.70
2022-11-03T09:28:24.972Z,3.33
2022-11-03T09:30:51.912Z,3.10
2022-11-03T09:33:18.795Z,3.60
2022-11-03T09:35:45.703Z,3.97
2022-11-03T09:38:12.584Z,3.97
2022-11-03T09:40:39.551Z,3.83
2022-11-03T09:43:06.792Z,3.70
2022-11-03T09:45:33.945Z,4.70
2022-11-03T09:48:01.721Z,3.73
2022-11-03T09:50:28.616Z,4.03
2022-11-03T09:52:57.482Z,3.20
2022-11-03T09:55:26.478Z,4.23
2022-11-03T09:58:00.731Z,3.40
2022-11-03T10:00:27.977Z,3.83
2022-11-03T10:02:55.773Z,4.17
2022-11-03T10:05:31.731Z,3.23
2022-11-03T10:08:05.862Z,3.60
2022-11-03T10:10:34.298Z,3.20
2022-11-03T10:13:01.970Z,3.30
2022-11-03T10:15:29.231Z,3.57
2022-11-03T10:17:56.751Z,3.53
2022-11-03T10:20:24.080Z,3.50
2022-11-03T10:22:55.120Z,2.90
2022-11-03T10:25:48.246Z,2.93
2022-11-03T10:28:20.571Z,2.50
2022-11-03T10:31:14.533Z,3.07
2022-11-03T10:33:53.016Z,3.37
2022-11-03T10:36:22.238Z,2.97
2022-11-03T10:38:49.151Z,3.23
2022-11-03T10:41:21.630Z,3.00
2022-11-03T10:44:11.261Z,3.07
2022-11-03T10:46:55.013Z,2.90
2022-11-03T10:49:22.076Z,3.53
2022-11-03T10:51:52.506Z,2.93
2022-11-03T10:54:22.877Z,2.53
2022-11-03T10:56:51.975Z,3.73
2022-11-03T10:59:31.413Z,2.87
2022-11-03T11:02:00.106Z,3.30
2022-11-03T11:04:27.292Z,3.27
2022-11-03T11:06:54.510Z,2.77
2022-11-03T11:09:28.159Z,3.33
2022-11-03T11:12:03.597Z,3.10
2022-11-03T11:14:30.330Z,2.53
2022-11-03T11:17:01.087Z,3.03
2022-11-03T11:19:30.141Z,4.40
2022-11-03T11:21:56.893Z,3.00
2022-11-03T11:24:45.081Z,3.30
2022-11-03T11:27:36.677Z,3.00
2022-11-03T11:30:07.391Z,2.60
2022-11-03T11:32:37.292Z,2.60
2022-11-03T11:35:04.293Z,2.73
2022-11-03T11:37:31.037Z,2.80
2022-11-03T11:39:57.957Z,3.10
2022-11-03T11:44:58.195Z,3.03
2022-11-03T11:47:47.197Z,2.90
2022-11-03T11:50:27.812Z,3.00
2022-11-03T11:53:10.904Z,2.80
2022-11-03T11:55:57.840Z,2.90
2022-11-03T11:58:42.769Z,2.63
2022-11-03T12:01:32.778Z,2.93
2022-11-03T12:04:06.378Z,2.87
2022-11-03T12:06:38.030Z,2.53
2022-11-03T12:09:20.768Z,2.43
2022-11-03T12:11:55.623Z,2.97
2022-11-03T12:14:29.324Z,3.07
2022-11-03T12:16:57.639Z,2.87
2022-11-03T12:19:44.819Z,3.70
2022-11-03T12:22:23.725Z,3.07
2022-11-03T12:24:57.944Z,2.73
2022-11-03T12:27:24.705Z,3.13
2022-11-03T12:30:00.479Z,2.50
2022-11-03T12:32:33.588Z,3.63
2022-11-03T12:35:06.753Z,3.63
2022-11-03T12:37:33.639Z,2.90
2022-11-03T12:40:00.642Z,3.20
2022-11-03T12:42:27.734Z,3.30
2022-11-03T12:44:54.902Z,4.13
2022-11-03T12:47:21.798Z,2.50
2022-11-03T12:49:48.766Z,3.10
2022-11-03T12:52:15.753Z,3.43
2022-11-03T12:54:42.652Z,3.23
2022-11-03T12:57:09.570Z,3.10
2022-11-03T12:59:36.701Z,3.37
2022-11-03T13:02:04.009Z,3.67
2022-11-03T13:04:31.018Z,4.30
2022-11-03T13:06:57.926Z,3.10
2022-11-03T13:09:24.800Z,3.73
2022-11-03T13:12:10.536Z,3.27
2022-11-03T13:14:37.431Z,2.83
2022-11-03T13:17:04.537Z,3.40
2022-11-03T13:19:31.516Z,3.10
2022-11-03T13:21:58.438Z,4.00
2022-11-03T13:24:25.310Z,3.63
2022-11-03T13:26:52.202Z,3.90
2022-11-03T13:29:19.064Z,3.17
2022-11-03T13:31:45.932Z,2.80
2022-11-03T13:34:12.836Z,3.50
2022-11-03T13:36:39.859Z,3.13
2022-11-03T13:39:06.724Z,2.80
2022-11-03T13:41:33.602Z,3.10
2022-11-03T13:44:00.474Z,2.83
2022-11-03T13:46:27.360Z,2.90
2022-11-03T13:49:45.007Z,2.73
2022-11-03T13:51:41.238Z,2.53
2022-11-03T13:59:42.737Z,3.30
2022-11-03T14:04:57.738Z,2.87
2022-11-03T14:07:24.615Z,2.80
2022-11-03T14:09:51.490Z,3.20
2022-11-03T14:12:34.654Z,2.93
2022-11-03T14:15:05.800Z,3.23
2022-11-03T14:17:33.011Z,3.00
2022-11-03T14:20:04.092Z,2.90
2022-11-03T14:22:32.411Z,3.17
2022-11-03T14:24:59.552Z,3.23
2022-11-03T14:27:26.532Z,3.13
2022-11-03T14:29:53.569Z,3.20
2022-11-03T14:32:20.871Z,3.17
2022-11-03T14:34:48.302Z,3.30
2022-11-03T14:37:15.470Z,8.53
2022-11-03T14:39:42.450Z,3.33
2022-11-03T14:42:16.501Z,4.10
2022-11-03T14:44:46.020Z,2.80
2022-11-03T14:47:17.850Z,4.10
2022-11-03T14:49:46.116Z,3.33
2022-11-03T14:52:14.223Z,3.50
2022-11-03T14:54:41.433Z,3.40
2022-11-03T14:57:09.590Z,3.80
2022-11-03T14:59:36.524Z,4.37
2022-11-03T15:02:04.679Z,4.03
2022-11-03T15:04:31.713Z,3.63
2022-11-03T15:06:58.658Z,4.03
2022-11-03T15:09:25.610Z,4.33
2022-11-03T15:11:52.560Z,3.77
2022-11-03T15:14:19.423Z,2.77
2022-11-03T15:16:46.356Z,3.60
2022-11-03T15:19:13.436Z,4.47
2022-11-03T15:21:40.341Z,4.53
2022-11-03T15:26:54.198Z,3.47
2022-11-03T15:29:22.893Z,3.07
2022-11-03T15:31:49.904Z,3.70
2022-11-03T15:34:16.797Z,3.60
2022-11-03T15:36:43.677Z,4.63
2022-11-03T15:39:10.544Z,4.13
2022-11-03T15:41:37.433Z,3.60
2022-11-03T15:44:04.333Z,4.60
2022-11-03T15:46:31.201Z,4.60
2022-11-03T15:48:58.107Z,3.80
2022-11-03T15:51:25.376Z,4.50
2022-11-03T15:53:57.756Z,3.40
2022-11-03T15:56:28.875Z,4.53
2022-11-03T15:58:56.285Z,3.97
2022-11-03T16:01:23.520Z,4.03
2022-11-03T16:03:50.629Z,3.80
2022-11-03T16:06:18.088Z,3.90
2022-11-03T16:08:45.098Z,4.10
2022-11-03T16:11:12.040Z,4.10
2022-11-03T16:13:39.587Z,4.03
2022-11-03T16:16:07.053Z,4.57
2022-11-03T16:18:34.630Z,4.13
2022-11-03T16:21:01.521Z,4.50
2022-11-03T16:23:28.383Z,4.50
2022-11-03T16:25:55.259Z,4.97
2022-11-03T16:28:23.178Z,5.10
2022-11-03T16:30:54.227Z,5.50
2022-11-03T16:33:21.984Z,4.60
2022-11-03T16:35:49.239Z,4.13
2022-11-03T16:38:16.116Z,5.47
2022-11-03T16:40:43.453Z,4.83
2022-11-03T16:43:10.812Z,4.70
2022-11-03T16:45:38.418Z,7.63
2022-11-03T16:48:06.758Z,5.13
2022-11-03T16:50:34.481Z,4.23
2022-11-03T16:53:01.457Z,5.10
2022-11-03T16:55:28.333Z,4.20
2022-11-03T16:57:55.200Z,3.73
2022-11-03T17:00:23.959Z,5.50
2022-11-03T17:02:51.579Z,4.80
2022-11-03T17:05:20.724Z,5.00
2022-11-03T17:07:53.279Z,4.70
2022-11-03T17:10:22.233Z,4.97
2022-11-03T17:12:49.903Z,4.83
2022-11-03T17:15:17.293Z,4.57
2022-11-03T17:17:44.287Z,4.43
2022-11-03T17:20:12.097Z,4.10
2022-11-03T17:22:39.424Z,5.50
2022-11-03T17:25:09.508Z,5.23
2022-11-03T17:27:51.998Z,5.00
2022-11-03T17:30:28.786Z,5.17
2022-11-03T17:33:00.380Z,5.20
2022-11-03T17:35:39.898Z,5.33
2022-11-03T17:38:13.856Z,4.60
2022-11-03T17:40:43.609Z,5.57
2022-11-03T17:43:20.439Z,4.90
2022-11-03T17:45:47.437Z,5.53
2022-11-03T17:48:14.629Z,5.23
2022-11-03T17:50:49.225Z,5.13
2022-11-03T17:53:32.014Z,6.20
2022-11-03T17:56:29.578Z,4.70
2022-11-03T17:58:48.370Z,6.10
2022-11-03T18:01:23.274Z,4.70
2022-11-03T18:03:50.274Z,5.23
2022-11-03T18:06:20.056Z,6.03
2022-11-03T18:08:47.898Z,5.73
2022-11-03T18:11:39.678Z,5.50
2022-11-03T18:14:06.570Z,6.50
2022-11-03T18:16:34.600Z,5.20
2022-11-03T18:19:01.497Z,5.40
2022-11-03T18:21:29.954Z,6.30
2022-11-03T18:23:56.835Z,5.03
2022-11-03T18:26:25.978Z,5.43
2022-11-03T18:28:53.859Z,4.90
2022-11-03T18:31:33.866Z,4.97
2022-11-03T18:34:05.324Z,5.73
2022-11-03T18:36:34.208Z,5.70
2022-11-03T18:39:02.463Z,5.10
2022-11-03T18:41:36.243Z,6.17
2022-11-03T18:44:21.935Z,5.70
2022-11-03T18:46:51.448Z,4.90
2022-11-03T18:49:18.863Z,6.40
2022-11-03T18:52:02.034Z,6.03
2022-11-03T18:54:31.449Z,5.70
2022-11-03T18:56:58.577Z,6.17
2022-11-03T18:59:35.939Z,5.70
2022-11-03T19:02:03.102Z,5.40
2022-11-03T19:04:31.814Z,4.93
2022-11-03T19:06:58.737Z,5.63
2022-11-03T19:09:26.886Z,5.50
2022-11-03T19:11:57.391Z,4.90
2022-11-03T19:14:31.927Z,6.10
2022-11-03T19:17:22.317Z,5.23
2022-11-03T19:19:50.121Z,4.63
2022-11-03T19:22:20.668Z,5.57
2022-11-03T19:24:47.539Z,5.47
2022-11-03T19:27:36.815Z,6.20
2022-11-03T19:30:05.557Z,6.20
2022-11-03T19:32:41.734Z,5.37
2022-11-03T19:35:29.456Z,5.93
2022-11-03T19:38:11.540Z,5.40
2022-11-03T19:40:39.495Z,5.93
2022-11-03T19:43:09.728Z,5.90
2022-11-03T19:45:36.595Z,5.80
2022-11-03T19:50:53.108Z,6.03
2022-11-03T19:53:24.232Z,4.63
2022-11-03T19:55:51.149Z,6.30
2022-11-03T19:58:21.517Z,5.10
2022-11-03T20:00:49.752Z,5.20
2022-11-03T20:03:17.092Z,5.43
2022-11-03T20:05:49.308Z,6.27
2022-11-03T20:08:21.164Z,6.80
2022-11-03T20:10:48.546Z,6.17
2022-11-03T20:13:18.449Z,6.43
2022-11-03T20:15:45.525Z,5.90
2022-11-03T20:18:13.350Z,6.23
2022-11-03T20:20:42.945Z,6.80
2022-11-03T20:23:26.617Z,5.77
2022-11-03T20:25:54.518Z,6.50
2022-11-03T20:28:29.981Z,5.83
2022-11-03T20:31:01.045Z,5.50
2022-11-03T20:33:28.086Z,5.97
2022-11-03T20:35:55.393Z,6.30
2022-11-03T20:38:24.947Z,7.07
2022-11-03T20:40:58.310Z,6.20
2022-11-03T20:43:28.285Z,6.07
2022-11-03T20:45:56.311Z,6.43
2022-11-03T20:48:23.773Z,6.30
2022-11-03T20:50:51.920Z,5.90
2022-11-03T20:53:23.104Z,6.43
2022-11-03T20:55:50.944Z,6.87
2022-11-03T20:58:18.465Z,5.27
2022-11-03T21:00:47.504Z,5.77
2022-11-03T21:06:16.566Z,5.70
2022-11-03T21:08:45.617Z,6.80
2022-11-03T21:11:26.931Z,5.57
2022-11-03T21:14:02.794Z,7.00
2022-11-03T21:16:49.409Z,6.47
2022-11-03T21:19:58.426Z,6.20
2022-11-03T21:22:53.256Z,6.07
2022-11-03T21:25:22.277Z,6.30
2022-11-03T21:27:49.702Z,6.10
2022-11-03T21:30:18.032Z,6.40
2022-11-03T21:32:45.047Z,6.60
2022-11-03T21:35:19.647Z,6.40
2022-11-03T21:37:47.189Z,5.90
2022-11-03T21:40:14.296Z,6.50
2022-11-03T21:42:59.435Z,6.60
2022-11-03T21:45:26.851Z,6.50
2022-11-03T21:48:14.322Z,6.13
2022-11-03T21:50:42.905Z,6.70
2022-11-03T21:53:10.919Z,6.23
2022-11-03T21:55:38.357Z,7.07
2022-11-03T21:58:05.294Z,7.90
2022-11-03T22:00:32.947Z,7.17
2022-11-03T22:03:00.791Z,6.70
2022-11-03T22:05:27.806Z,8.50
2022-11-03T22:07:54.683Z,8.00
2022-11-03T22:10:21.865Z,6.87
2022-11-03T22:12:48.745Z,7.50
2022-11-03T22:15:34.223Z,8.23
2022-11-03T22:18:06.297Z,7.70
2022-11-03T22:20:52.642Z,7.70
2022-11-03T22:23:38.482Z,7.37
2022-11-03T22:26:23.893Z,7.27
2022-11-03T22:29:10.701Z,7.10
2022-11-03T22:31:43.279Z,6.90
2022-11-03T22:34:29.057Z,7.60
2022-11-03T22:36:56.022Z,7.90
2022-11-03T22:39:41.450Z,7.00
2022-11-03T22:42:30.324Z,7.00
2022-11-03T22:45:16.109Z,7.40
2022-11-03T22:47:42.992Z,7.30
2022-11-03T22:50:09.948Z,8.20
2022-11-03T22:52:36.858Z,7.70
2022-11-03T22:55:04.143Z,8.23
2022-11-03T22:57:31.025Z,8.30
2022-11-03T22:59:57.912Z,8.27
2022-11-03T23:02:24.897Z,7.67
2022-11-03T23:04:51.863Z,7.43
2022-11-03T23:07:18.740Z,7.40
2022-11-03T23:09:45.854Z,7.47
2022-11-03T23:12:12.771Z,7.20
2022-11-03T23:14:58.293Z,8.00
2022-11-03T23:17:45.132Z,7.60
2022-11-03T23:20:30.888Z,7.70
2022-11-03T23:22:57.793Z,8.63
2022-11-03T23:25:24.664Z,7.37
2022-11-03T23:27:53.004Z,8.40
2022-11-03T23:30:19.870Z,8.00
2022-11-03T23:32:46.761Z,8.07
2022-11-03T23:35:14.617Z,8.00
2022-11-03T23:37:41.546Z,8.87
2022-11-03T23:40:09.129Z,8.97
2022-11-03T23:42:36.090Z,9.50
2022-11-03T23:45:21.702Z,8.50
2022-11-03T23:48:07.654Z,9.30
2022-11-03T23:50:34.671Z,9.17
2022-11-03T23:53:01.573Z,9.63
2022-11-03T23:55:48.985Z,10.23
2022-11-03T23:58:18.805Z,9.47
